createdAt,value
2023-03-05T00:00:25.694Z,-1.15
2023-03-05T00:02:54.679Z,-1.18
2023-03-05T00:05:25.194Z,-1.37
2023-03-05T00:07:54.319Z,-1.41
2023-03-05T00:10:23.525Z,-1.41
2023-03-05T00:12:52.571Z,-1.37
2023-03-05T00:15:21.682Z,-1.37
2023-03-05T00:17:50.770Z,-1.30
2023-03-05T00:20:20.340Z,-1.37
2023-03-05T00:22:50.796Z,-1.46
2023-03-05T00:25:19.906Z,-1.20
2023-03-05T00:27:48.996Z,-1.25
2023-03-05T00:30:18.038Z,-1.51
2023-03-05T00:32:47.059Z,-1.55
2023-03-05T00:35:16.377Z,-1.66
2023-03-05T00:37:45.442Z,-1.67
2023-03-05T00:40:16.597Z,-1.69
2023-03-05T00:42:45.724Z,-1.61
2023-03-05T00:45:14.789Z,-1.42
2023-03-05T00:47:43.823Z,-1.58
2023-03-05T00:50:13.348Z,-1.75
2023-03-05T00:52:42.543Z,-1.85
2023-03-05T00:55:12.090Z,-1.94
2023-03-05T00:57:42.533Z,-2.00
2023-03-05T01:00:13.850Z,-2.04
2023-03-05T01:02:42.971Z,-1.87
2023-03-05T01:05:14.298Z,-1.80
2023-03-05T01:07:43.464Z,-1.98
2023-03-05T01:10:14.472Z,-1.67
2023-03-05T01:12:44.916Z,-1.92
2023-03-05T01:15:14.142Z,-1.94
2023-03-05T01:17:43.309Z,-2.10
2023-03-05T01:20:15.722Z,-2.04
2023-03-05T01:22:45.022Z,-2.06
2023-03-05T01:25:15.523Z,-2.10
2023-03-05T01:27:46.203Z,-2.00
2023-03-05T01:30:16.682Z,-1.92
2023-03-05T01:32:45.886Z,-1.86
2023-03-05T01:35:20.679Z,-1.83
2023-03-05T01:37:50.104Z,-1.71
2023-03-05T01:40:22.279Z,-1.87
2023-03-05T01:43:01.062Z,-2.11
2023-03-05T01:45:33.447Z,-2.01
2023-03-05T01:48:02.572Z,-2.08
2023-03-05T01:50:31.845Z,-2.23
2023-03-05T01:53:07.551Z,-2.14
2023-03-05T01:55:39.570Z,-2.16
2023-03-05T01:58:14.304Z,-2.08
2023-03-05T02:00:47.795Z,-2.09
2023-03-05T02:03:17.750Z,-2.13
2023-03-05T02:05:46.896Z,-2.23
2023-03-05T02:08:18.641Z,-2.36
2023-03-05T02:10:50.172Z,-2.28
2023-03-05T02:13:24.160Z,-2.29
2023-03-05T02:15:55.700Z,-2.37
2023-03-05T02:18:25.198Z,-2.41
2023-03-05T02:21:00.631Z,-2.61
2023-03-05T02:23:36.367Z,-2.77
2023-03-05T02:26:09.696Z,-2.75
2023-03-05T02:28:43.851Z,-2.85
2023-03-05T02:31:17.400Z,-2.90
2023-03-05T02:33:47.099Z,-2.93
2023-03-05T02:36:19.484Z,-2.84
2023-03-05T02:38:49.915Z,-2.86
2023-03-05T02:41:19.054Z,-2.74
2023-03-05T02:43:48.858Z,-2.88
2023-03-05T02:46:18.184Z,-2.94
2023-03-05T02:48:47.207Z,-2.92
2023-03-05T02:51:18.372Z,-3.03
2023-03-05T02:53:48.760Z,-3.10
2023-03-05T02:56:18.810Z,-3.10
2023-03-05T02:58:47.926Z,-3.18
2023-03-05T03:01:16.967Z,-3.18
2023-03-05T03:03:46.011Z,-3.17
2023-03-05T03:06:15.152Z,-3.13
2023-03-05T03:08:45.547Z,-3.13
2023-03-05T03:11:14.917Z,-3.26
2023-03-05T03:13:43.979Z,-3.27
2023-03-05T03:16:16.566Z,-3.21
2023-03-05T03:18:47.545Z,-3.27
2023-03-05T03:21:21.610Z,-3.19
2023-03-05T03:23:52.450Z,-3.20
2023-03-05T03:26:21.772Z,-3.29
2023-03-05T03:28:50.882Z,-3.26
2023-03-05T03:31:20.054Z,-3.12
2023-03-05T03:33:49.144Z,-2.98
2023-03-05T03:36:18.133Z,-3.14
2023-03-05T03:38:47.148Z,-3.08
2023-03-05T03:41:18.931Z,-3.12
2023-03-05T03:43:47.977Z,-3.39
2023-03-05T03:46:17.130Z,-3.44
2023-03-05T03:48:46.151Z,-3.30
2023-03-05T03:51:15.265Z,-3.42
2023-03-05T03:53:44.464Z,-3.41
2023-03-05T03:56:13.503Z,-3.49
2023-03-05T03:58:44.018Z,-3.55
2023-03-05T04:01:13.089Z,-3.57
2023-03-05T04:03:42.087Z,-3.56
2023-03-05T04:06:11.210Z,-3.31
2023-03-05T04:08:42.117Z,-3.39
2023-03-05T04:11:11.358Z,-3.31
2023-03-05T04:13:40.394Z,-3.38
2023-03-05T04:16:11.012Z,-3.52
2023-03-05T04:18:40.217Z,-3.55
2023-03-05T04:21:09.569Z,-3.57
2023-03-05T04:23:40.326Z,-3.65
2023-03-05T04:26:09.469Z,-3.51
2023-03-05T04:28:38.740Z,-3.67
2023-03-05T04:31:07.768Z,-3.58
2023-03-05T04:33:38.657Z,-3.66
2023-03-05T04:36:09.025Z,-3.72
2023-03-05T04:38:38.062Z,-3.82
2023-03-05T04:41:07.102Z,-4.04
2023-03-05T04:43:38.763Z,-4.09
2023-03-05T04:46:07.875Z,-4.15
2023-03-05T04:48:38.330Z,-4.06
2023-03-05T04:51:07.688Z,-3.95
2023-03-05T04:53:36.779Z,-3.91
2023-03-05T04:56:06.834Z,-4.06
2023-03-05T04:58:35.828Z,-4.15
2023-03-05T05:01:06.945Z,-4.22
2023-03-05T05:03:37.631Z,-4.11
2023-03-05T05:06:07.530Z,-4.19
2023-03-05T05:08:37.448Z,-4.12
2023-03-05T05:11:08.960Z,-3.86
2023-03-05T05:13:38.007Z,-3.91
2023-03-05T05:16:08.791Z,-3.85
2023-03-05T05:18:39.635Z,-3.71
2023-03-05T05:21:10.203Z,-3.83
2023-03-05T05:23:40.324Z,-4.02
2023-03-05T05:26:14.299Z,-3.86
2023-03-05T05:28:44.556Z,-3.89
2023-03-05T05:31:16.782Z,-3.97
2023-03-05T05:33:49.826Z,-3.95
2023-03-05T05:36:22.362Z,-3.84
2023-03-05T05:38:51.651Z,-3.76
2023-03-05T05:41:21.232Z,-3.88
2023-03-05T05:43:51.061Z,-3.99
2023-03-05T05:46:21.991Z,-4.14
2023-03-05T05:48:52.612Z,-4.16
2023-03-05T05:51:24.420Z,-4.22
2023-03-05T05:53:53.993Z,-4.19
2023-03-05T05:56:23.090Z,-4.05
2023-03-05T05:58:52.321Z,-3.85
2023-03-05T06:01:28.086Z,-3.66
2023-03-05T06:03:59.509Z,-3.71
2023-03-05T06:06:29.753Z,-3.54
2023-03-05T06:08:58.871Z,-3.50
2023-03-05T06:11:28.492Z,-3.42
2023-03-05T06:13:57.520Z,-3.47
2023-03-05T06:16:27.034Z,-3.52
2023-03-05T06:18:56.226Z,-3.54
2023-03-05T06:21:26.672Z,-3.45
2023-03-05T06:23:55.871Z,-3.40
2023-03-05T06:26:24.983Z,-3.11
2023-03-05T06:28:54.959Z,-2.80
2023-03-05T06:31:26.680Z,-2.59
2023-03-05T06:34:02.278Z,-2.50
2023-03-05T06:36:32.865Z,-2.44
2023-03-05T06:39:01.911Z,-2.33
2023-03-05T06:41:34.119Z,-2.23
2023-03-05T06:44:04.216Z,-2.11
2023-03-05T06:46:35.524Z,-1.97
2023-03-05T06:49:07.084Z,-1.76
2023-03-05T06:51:40.402Z,-1.81
2023-03-05T06:54:12.129Z,-1.66
2023-03-05T06:56:43.990Z,-1.72
2023-03-05T06:59:14.227Z,-1.76
2023-03-05T07:01:46.756Z,-1.69
2023-03-05T07:04:17.049Z,-1.62
2023-03-05T07:06:47.566Z,-1.49
2023-03-05T07:09:17.774Z,-1.43
2023-03-05T07:11:46.844Z,-1.23
2023-03-05T07:14:15.949Z,-1.20
2023-03-05T07:16:45.083Z,-1.27
2023-03-05T07:19:14.227Z,-1.10
2023-03-05T07:21:43.245Z,-0.81
2023-03-05T07:24:14.647Z,-0.57
2023-03-05T07:26:43.905Z,-0.35
2023-03-05T07:29:13.210Z,-0.06
2023-03-05T07:31:42.314Z,0.34
2023-03-05T07:34:11.552Z,0.52
2023-03-05T07:36:42.290Z,0.65
2023-03-05T07:39:14.562Z,0.77
2023-03-05T07:41:43.632Z,0.81
2023-03-05T07:44:12.594Z,1.06
2023-03-05T07:46:41.840Z,1.15
2023-03-05T07:49:11.127Z,1.31
2023-03-05T07:51:43.261Z,1.48
2023-03-05T07:54:13.873Z,1.70
2023-03-05T07:56:44.930Z,1.97
2023-03-05T07:59:16.319Z,2.06
2023-03-05T08:01:46.425Z,2.09
2023-03-05T08:04:15.553Z,2.13
2023-03-05T08:06:44.584Z,2.00
2023-03-05T08:09:15.094Z,2.18
2023-03-05T08:11:44.712Z,2.49
2023-03-05T08:14:13.786Z,2.82
2023-03-05T08:16:48.334Z,3.14
2023-03-05T08:19:17.543Z,3.52
2023-03-05T08:21:49.831Z,3.80
2023-03-05T08:24:20.282Z,4.01
2023-03-05T08:26:49.308Z,4.38
2023-03-05T08:29:18.432Z,4.55
2023-03-05T08:31:48.074Z,4.57
2023-03-05T08:34:17.311Z,4.77
2023-03-05T08:36:49.624Z,5.04
2023-03-05T08:39:20.221Z,5.24
2023-03-05T08:41:49.292Z,5.32
2023-03-05T08:44:18.379Z,5.50
2023-03-05T08:46:47.393Z,5.79
2023-03-05T08:49:16.495Z,5.86
2023-03-05T08:51:45.521Z,6.15
2023-03-05T08:54:14.567Z,6.37
2023-03-05T08:56:47.230Z,6.58
2023-03-05T08:59:16.284Z,6.93
2023-03-05T09:01:45.466Z,7.40
2023-03-05T09:04:15.448Z,7.62
2023-03-05T09:06:44.675Z,7.80
2023-03-05T09:09:14.185Z,7.91
2023-03-05T09:11:44.663Z,8.21
2023-03-05T09:14:13.652Z,8.41
2023-03-05T09:16:42.830Z,8.34
2023-03-05T09:19:12.858Z,8.45
2023-03-05T09:21:42.490Z,8.76
2023-03-05T09:24:12.250Z,9.16
2023-03-05T09:26:42.490Z,9.50
2023-03-05T09:29:13.463Z,9.67
2023-03-05T09:31:44.135Z,9.97
2023-03-05T09:34:13.921Z,10.12
2023-03-05T09:36:43.569Z,10.04
2023-03-05T09:39:12.791Z,10.24
2023-03-05T09:42:23.558Z,10.38
2023-03-05T09:45:06.697Z,10.50
2023-03-05T09:47:51.976Z,10.86
2023-03-05T09:50:39.008Z,11.21
2023-03-05T09:53:29.258Z,11.05
2023-03-05T09:56:03.663Z,11.11
2023-03-05T09:58:38.494Z,11.44
2023-03-05T10:01:13.271Z,11.44
2023-03-05T10:03:57.003Z,11.47
2023-03-05T10:06:30.449Z,12.06
2023-03-05T10:09:06.312Z,12.11
2023-03-05T10:11:48.392Z,12.33
2023-03-05T10:14:27.352Z,12.51
2023-03-05T10:17:23.163Z,12.69
2023-03-05T10:20:26.932Z,12.75
2023-03-05T10:23:18.134Z,12.69
2023-03-05T10:26:00.791Z,12.78
2023-03-05T10:28:43.877Z,12.70
2023-03-05T10:31:30.522Z,12.50
2023-03-05T10:34:23.022Z,12.52
2023-03-05T10:37:11.101Z,12.34
2023-03-05T10:40:15.405Z,11.93
2023-03-05T10:42:52.304Z,12.18
2023-03-05T10:45:27.878Z,12.41
2023-03-05T10:48:03.590Z,12.22
2023-03-05T10:50:39.815Z,12.23
2023-03-05T10:53:21.379Z,11.82
2023-03-05T10:55:56.071Z,11.62
2023-03-05T10:58:26.857Z,12.13
2023-03-05T11:01:03.015Z,12.65
2023-03-05T11:03:54.465Z,12.48
2023-03-05T11:06:38.392Z,12.53
2023-03-05T11:09:24.343Z,12.89
2023-03-05T11:12:14.900Z,12.70
2023-03-05T11:14:48.009Z,12.61
2023-03-05T11:17:34.026Z,12.54
2023-03-05T11:20:31.665Z,12.91
2023-03-05T11:23:11.251Z,13.55
2023-03-05T11:26:06.099Z,13.96
2023-03-05T11:28:37.957Z,14.39
2023-03-05T11:31:21.945Z,14.12
2023-03-05T11:34:01.343Z,14.41
2023-03-05T11:36:34.653Z,14.34
2023-03-05T11:39:17.444Z,14.66
2023-03-05T11:41:51.306Z,14.99
2023-03-05T11:44:26.683Z,15.25
2023-03-05T11:47:00.940Z,15.24
2023-03-05T11:49:35.119Z,14.59
2023-03-05T11:52:10.806Z,14.32
2023-03-05T11:54:57.845Z,13.28
2023-03-05T11:57:28.373Z,12.64
2023-03-05T12:00:07.933Z,12.20
2023-03-05T12:02:39.465Z,13.31
2023-03-05T12:05:09.517Z,13.79
2023-03-05T12:07:46.588Z,14.29
2023-03-05T12:10:23.814Z,14.11
2023-03-05T12:13:01.988Z,13.42
2023-03-05T12:15:43.811Z,10.83
2023-03-05T12:18:28.220Z,11.31
2023-03-05T12:21:07.206Z,12.55
2023-03-05T12:23:49.606Z,14.08
2023-03-05T12:26:41.035Z,15.15
2023-03-05T12:29:31.718Z,15.34
2023-03-05T12:32:02.283Z,15.80
2023-03-05T12:34:50.202Z,15.53
2023-03-05T12:38:17.160Z,14.63
2023-03-05T12:40:52.959Z,13.64
2023-03-05T12:43:35.088Z,13.26
2023-03-05T12:46:29.476Z,13.79
2023-03-05T12:48:58.795Z,15.19
2023-03-05T12:51:46.778Z,16.29
2023-03-05T12:54:35.148Z,17.75
2023-03-05T12:57:07.940Z,18.25
2023-03-05T12:59:48.155Z,17.90
2023-03-05T13:02:32.744Z,17.10
2023-03-05T13:05:08.479Z,17.79
2023-03-05T13:07:37.611Z,18.07
2023-03-05T13:10:08.165Z,17.67
2023-03-05T13:12:42.866Z,18.07
2023-03-05T13:15:17.642Z,16.95
2023-03-05T13:17:57.938Z,17.32
2023-03-05T13:20:37.643Z,17.72
2023-03-05T13:23:24.797Z,18.25
2023-03-05T13:26:04.142Z,18.17
2023-03-05T13:28:34.417Z,18.50
2023-03-05T13:31:13.357Z,19.80
2023-03-05T13:33:54.449Z,20.33
2023-03-05T13:36:26.083Z,20.54
2023-03-05T13:38:56.379Z,19.27
2023-03-05T13:41:27.846Z,17.92
2023-03-05T13:44:00.641Z,17.80
2023-03-05T13:46:40.141Z,18.24
2023-03-05T13:49:24.302Z,19.90
2023-03-05T13:51:55.702Z,21.22
2023-03-05T13:54:26.719Z,22.94
2023-03-05T13:56:58.883Z,22.98
2023-03-05T13:59:33.959Z,24.07
2023-03-05T14:02:16.115Z,25.15
2023-03-05T14:04:47.710Z,24.53
2023-03-05T14:07:30.935Z,23.60
2023-03-05T14:10:00.786Z,22.13
2023-03-05T14:12:37.182Z,21.51
2023-03-05T14:15:21.024Z,20.56
2023-03-05T14:17:50.812Z,20.80
2023-03-05T14:20:30.186Z,19.75
2023-03-05T14:23:01.700Z,18.21
2023-03-05T14:25:36.507Z,17.49
2023-03-05T14:28:27.496Z,18.91
2023-03-05T14:30:58.101Z,20.07
2023-03-05T14:33:30.852Z,19.00
2023-03-05T14:36:07.598Z,17.53
2023-03-05T14:38:40.407Z,16.37
2023-03-05T14:41:38.733Z,15.00
2023-03-05T14:44:14.702Z,14.58
2023-03-05T14:46:49.041Z,15.49
2023-03-05T14:49:18.924Z,16.86
2023-03-05T14:51:50.080Z,16.79
2023-03-05T14:54:22.834Z,15.85
2023-03-05T14:56:55.761Z,15.75
2023-03-05T14:59:25.045Z,16.87
2023-03-05T15:01:54.410Z,17.72
2023-03-05T15:04:23.421Z,16.45
2023-03-05T15:06:54.408Z,16.38
2023-03-05T15:09:23.935Z,18.48
2023-03-05T15:11:53.091Z,19.70
2023-03-05T15:14:23.106Z,19.96
2023-03-05T15:16:53.664Z,19.98
2023-03-05T15:19:26.416Z,19.85
2023-03-05T15:21:57.107Z,19.75
2023-03-05T15:24:26.684Z,19.17
2023-03-05T15:26:56.509Z,19.91
2023-03-05T15:29:25.585Z,20.31
2023-03-05T15:32:01.166Z,20.60
2023-03-05T15:34:31.520Z,20.56
2023-03-05T15:37:11.149Z,19.28
2023-03-05T15:39:40.295Z,18.61
2023-03-05T15:42:10.212Z,18.46
2023-03-05T15:44:40.180Z,16.78
2023-03-05T15:47:09.542Z,15.50
2023-03-05T15:49:38.581Z,14.70
2023-03-05T15:52:09.028Z,13.90
2023-03-05T15:54:38.154Z,13.23
2023-03-05T15:57:11.864Z,12.67
2023-03-05T15:59:40.983Z,12.12
2023-03-05T16:02:10.118Z,11.89
2023-03-05T16:04:39.252Z,11.67
2023-03-05T16:07:10.342Z,11.55
2023-03-05T16:09:43.847Z,11.36
2023-03-05T16:12:19.199Z,11.05
2023-03-05T16:14:50.886Z,10.70
2023-03-05T16:17:23.530Z,10.34
2023-03-05T16:19:56.452Z,9.92
2023-03-05T16:22:27.171Z,9.57
2023-03-05T16:24:59.610Z,9.15
2023-03-05T16:27:30.040Z,8.94
2023-03-05T16:29:59.566Z,8.63
2023-03-05T16:32:32.833Z,8.32
2023-03-05T16:35:17.420Z,8.03
2023-03-05T16:37:50.554Z,7.77
2023-03-05T16:40:21.030Z,7.49
2023-03-05T16:42:50.294Z,7.27
2023-03-05T16:45:25.347Z,7.04
2023-03-05T16:47:57.795Z,6.90
2023-03-05T16:50:28.295Z,6.71
2023-03-05T16:52:59.892Z,6.77
2023-03-05T16:55:29.197Z,6.67
2023-03-05T16:57:58.447Z,6.59
2023-03-05T17:00:30.949Z,6.50
2023-03-05T17:03:00.615Z,6.37
2023-03-05T17:05:31.479Z,6.29
2023-03-05T17:08:04.431Z,6.18
2023-03-05T17:10:34.231Z,6.06
2023-03-05T17:13:03.499Z,5.97
2023-03-05T17:15:33.391Z,5.83
2023-03-05T17:18:11.421Z,5.83
2023-03-05T17:20:42.199Z,5.95
2023-03-05T17:23:12.793Z,6.01
2023-03-05T17:25:42.890Z,6.03
2023-03-05T17:28:15.164Z,6.07
2023-03-05T17:30:49.536Z,6.13
2023-03-05T17:33:18.842Z,6.29
2023-03-05T17:35:48.445Z,6.10
2023-03-05T17:38:18.975Z,6.01
2023-03-05T17:40:48.304Z,6.10
2023-03-05T17:43:18.758Z,6.20
2023-03-05T17:45:52.837Z,6.26
2023-03-05T17:48:21.965Z,6.10
2023-03-05T17:50:51.826Z,6.06
2023-03-05T17:53:26.717Z,5.95
2023-03-05T17:55:55.896Z,6.01
2023-03-05T17:58:25.275Z,5.88
2023-03-05T18:00:54.444Z,5.77
2023-03-05T18:03:23.765Z,5.69
2023-03-05T18:05:52.930Z,5.68
2023-03-05T18:08:23.992Z,5.66
2023-03-05T18:10:53.358Z,5.80
2023-03-05T18:13:25.250Z,5.72
2023-03-05T18:15:54.337Z,5.73
2023-03-05T18:18:23.376Z,5.61
2023-03-05T18:20:52.470Z,5.63
2023-03-05T18:23:21.888Z,5.52
2023-03-05T18:25:52.498Z,5.38
2023-03-05T18:28:21.592Z,5.37
2023-03-05T18:30:50.768Z,5.25
2023-03-05T18:33:22.560Z,5.17
2023-03-05T18:35:53.191Z,5.12
2023-03-05T18:38:27.180Z,5.08
2023-03-05T18:40:58.708Z,5.01
2023-03-05T18:43:28.248Z,4.96
2023-03-05T18:45:58.466Z,4.85
2023-03-05T18:48:27.732Z,4.81
2023-03-05T18:50:57.085Z,4.74
2023-03-05T18:53:29.233Z,4.63
2023-03-05T18:56:07.674Z,4.57
2023-03-05T18:58:37.094Z,4.52
2023-03-05T19:01:07.086Z,4.60
2023-03-05T19:03:36.582Z,4.53
2023-03-05T19:06:09.021Z,4.54
2023-03-05T19:08:38.552Z,4.58
2023-03-05T19:11:22.250Z,4.50
2023-03-05T19:13:52.665Z,4.57
2023-03-05T19:16:25.046Z,4.58
2023-03-05T19:19:03.202Z,4.56
2023-03-05T19:21:33.414Z,4.61
2023-03-05T19:24:08.349Z,4.60
2023-03-05T19:26:45.177Z,4.56
2023-03-05T19:29:14.677Z,4.52
2023-03-05T19:31:44.379Z,4.43
2023-03-05T19:34:13.828Z,4.37
2023-03-05T19:36:42.979Z,4.32
2023-03-05T19:39:13.321Z,4.32
2023-03-05T19:41:43.952Z,4.37
2023-03-05T19:44:15.246Z,4.37
2023-03-05T19:46:45.542Z,4.35
2023-03-05T19:49:18.687Z,4.35
2023-03-05T19:51:51.723Z,4.35
2023-03-05T19:54:24.540Z,4.44
2023-03-05T19:56:56.019Z,4.37
2023-03-05T19:59:27.430Z,4.35
2023-03-05T20:01:59.428Z,4.40
2023-03-05T20:04:30.873Z,4.40
2023-03-05T20:07:00.134Z,4.30
2023-03-05T20:09:29.255Z,4.24
2023-03-05T20:12:02.785Z,4.15
2023-03-05T20:14:32.105Z,4.16
2023-03-05T20:17:01.447Z,4.16
2023-03-05T20:19:31.091Z,4.16
2023-03-05T20:22:00.795Z,4.09
2023-03-05T20:24:30.788Z,4.03
2023-03-05T20:27:03.108Z,3.94
2023-03-05T20:29:36.328Z,3.81
2023-03-05T20:32:06.017Z,3.64
2023-03-05T20:34:50.815Z,3.61
2023-03-05T20:37:30.087Z,3.49
2023-03-05T20:39:59.511Z,3.44
2023-03-05T20:42:30.595Z,3.43
2023-03-05T20:44:59.670Z,3.35
2023-03-05T20:47:37.582Z,3.37
2023-03-05T20:50:09.892Z,3.49
2023-03-05T20:52:39.774Z,3.41
2023-03-05T20:55:11.125Z,3.41
2023-03-05T20:57:42.664Z,3.35
2023-03-05T21:00:13.762Z,3.42
2023-03-05T21:02:45.597Z,3.48
2023-03-05T21:05:15.195Z,3.47
2023-03-05T21:07:47.445Z,3.58
2023-03-05T21:10:17.643Z,3.53
2023-03-05T21:12:50.670Z,3.52
2023-03-05T21:15:25.625Z,3.53
2023-03-05T21:17:59.504Z,3.51
2023-03-05T21:20:31.282Z,3.54
2023-03-05T21:23:03.861Z,3.57
2023-03-05T21:25:34.945Z,3.51
2023-03-05T21:28:08.188Z,3.58
2023-03-05T21:30:42.118Z,3.60
2023-03-05T21:33:13.940Z,3.63
2023-03-05T21:35:45.544Z,3.70
2023-03-05T21:38:15.205Z,3.66
2023-03-05T21:40:48.643Z,3.68
2023-03-05T21:43:22.470Z,3.68
2023-03-05T21:45:59.074Z,3.71
2023-03-05T21:48:28.160Z,3.68
2023-03-05T21:50:58.428Z,3.68
2023-03-05T21:53:28.114Z,3.66
2023-03-05T21:56:15.443Z,3.66
2023-03-05T21:58:46.750Z,3.56
2023-03-05T22:01:18.675Z,3.60
2023-03-05T22:03:48.974Z,3.59
2023-03-05T22:06:20.429Z,3.60
2023-03-05T22:08:50.136Z,3.59
2023-03-05T22:11:23.184Z,3.66
2023-03-05T22:13:53.960Z,3.60
2023-03-05T22:16:24.748Z,3.57
2023-03-05T22:18:54.261Z,3.54
2023-03-05T22:21:26.988Z,3.57
2023-03-05T22:23:57.161Z,3.57
2023-03-05T22:26:28.013Z,3.57
2023-03-05T22:28:58.561Z,3.50
2023-03-05T22:31:31.610Z,3.54
2023-03-05T22:34:00.693Z,3.43
2023-03-05T22:36:29.902Z,3.41
2023-03-05T22:38:59.044Z,3.39
2023-03-05T22:41:28.133Z,3.40
2023-03-05T22:43:58.695Z,3.38
2023-03-05T22:46:28.818Z,3.43
2023-03-05T22:48:58.127Z,3.36
2023-03-05T22:51:27.384Z,3.34
2023-03-05T22:53:56.977Z,3.34
2023-03-05T22:56:26.278Z,3.29
2023-03-05T22:58:55.321Z,3.31
2023-03-05T23:01:27.513Z,3.34
2023-03-05T23:04:08.763Z,3.31
2023-03-05T23:06:38.075Z,3.27
2023-03-05T23:09:07.142Z,3.25
2023-03-05T23:11:38.010Z,3.28
2023-03-05T23:14:07.103Z,3.32
2023-03-05T23:16:37.456Z,3.23
2023-03-05T23:19:12.457Z,3.20
2023-03-05T23:21:41.645Z,3.20
2023-03-05T23:24:12.517Z,3.24
2023-03-05T23:26:41.615Z,3.21
2023-03-05T23:29:10.603Z,3.17
2023-03-05T23:31:41.062Z,3.25
2023-03-05T23:34:10.157Z,3.26
2023-03-05T23:36:39.199Z,3.24
2023-03-05T23:39:08.197Z,3.21
2023-03-05T23:41:39.388Z,3.22
2023-03-05T23:44:08.510Z,3.09
2023-03-05T23:46:37.786Z,3.05
2023-03-05T23:49:10.838Z,3.02
2023-03-05T23:51:41.302Z,3.01
2023-03-05T23:54:10.481Z,2.98
2023-03-05T23:56:39.645Z,3.00
2023-03-05T23:59:08.921Z,3.11
